Time;durP1;ratioP1;P1;durP2;ratioP2;P2;SDS_P1;SDS_P2;PMS_P1;PMS_P2;Temp;Humidity;BMP_temperature;BMP_pressure;BME280_temperature;BME280_humidity;BME280_pressure;Samples;Min_cycle;Max_cycle;Signal;HPM_P1;HPM_P2
2024/01/22 00:00:35;;;;;;;;;4.00;3.00;;;;;19.69;43.11;101043.91;6368055;22;45173;-78
2024/01/22 00:03:00;;;;;;;;;1.50;1.50;;;;;19.71;43.20;101028.72;6368852;22;45379;-78
2024/01/22 00:05:26;;;;;;;;;2.00;2.00;;;;;19.70;43.29;101049.00;6368384;22;46154;-77
2024/01/22 00:07:51;;;;;;;;;4.00;4.00;;;;;19.68;43.22;101048.34;6368512;22;45351;-77
2024/01/22 00:10:16;;;;;;;;;2.00;2.00;;;;;19.61;43.06;101053.44;6368439;22;45307;-77
2024/01/22 00:12:42;;;;;;;;;3.33;2.00;;;;;19.70;43.31;101049.00;6368231;22;45476;-77
2024/01/22 00:15:08;;;;;;;;;3.33;2.67;;;;;19.63;42.93;101040.06;6368079;22;46790;-78
2024/01/22 00:17:33;;;;;;;;;2.67;2.67;;;;;19.65;43.19;101046.03;6367955;22;45333;-77
2024/01/22 00:19:58;;;;;;;;;3.00;2.00;;;;;19.62;43.16;101028.69;6368501;22;45322;-76
2024/01/22 00:22:23;;;;;;;;;2.67;2.67;;;;;19.66;43.09;101037.13;6368017;22;53937;-77
2024/01/22 00:24:49;;;;;;;;;1.67;1.00;;;;;19.47;43.30;101010.00;6367307;22;61257;-77
2024/01/22 00:27:14;;;;;;;;;1.00;1.00;;;;;19.62;43.35;101038.44;6367537;22;45323;-77
2024/01/22 00:29:39;;;;;;;;;3.00;1.00;;;;;19.55;43.31;101014.47;6367634;22;58253;-77
2024/01/22 00:32:05;;;;;;;;;2.00;2.00;;;;;19.60;43.26;100993.72;6367506;22;60331;-77
2024/01/22 00:34:30;;;;;;;;;2.00;2.00;;;;;19.56;43.01;101000.31;6367840;22;46868;-78
2024/01/22 00:36:56;;;;;;;;;2.00;2.00;;;;;19.54;43.06;100985.63;6367488;22;49256;-77
2024/01/22 00:39:21;;;;;;;;;2.00;2.00;;;;;19.62;43.38;100996.22;6368206;22;45219;-77
2024/01/22 00:41:47;;;;;;;;;2.00;2.00;;;;;19.61;43.16;101020.94;6367584;22;45314;-76
2024/01/22 00:44:12;;;;;;;;;1.00;1.00;;;;;19.43;43.18;100995.47;6368208;22;45253;-76
2024/01/22 00:46:37;;;;;;;;;3.00;2.00;;;;;19.57;43.44;100998.50;6368329;22;45205;-76
2024/01/22 00:49:02;;;;;;;;;1.67;1.67;;;;;19.54;43.31;100980.34;6368023;22;54373;-77
2024/01/22 00:51:28;;;;;;;;;1.00;1.00;;;;;19.43;43.14;100974.38;6368431;22;45423;-77
2024/01/22 00:53:53;;;;;;;;;4.00;2.00;;;;;19.58;43.11;100984.31;6368212;22;45313;-77
2024/01/22 00:56:18;;;;;;;;;2.67;1.00;;;;;19.43;42.99;100962.97;6367743;22;45239;-76
2024/01/22 00:58:44;;;;;;;;;1.00;1.00;;;;;19.53;43.51;100979.50;6368188;22;45423;-78
2024/01/22 01:01:09;;;;;;;;;1.33;1.33;;;;;19.50;42.81;100974.53;6368093;22;45259;-78
2024/01/22 01:03:35;;;;;;;;;2.00;2.00;;;;;19.58;42.92;101002.78;6367684;22;46093;-79
2024/01/22 01:06:00;;;;;;;;;1.00;1.00;;;;;19.57;43.09;100970.28;6367915;22;45213;-78
2024/01/22 01:08:25;;;;;;;;;2.33;2.00;;;;;19.51;43.18;100945.38;6368161;22;45292;-77
2024/01/22 01:10:51;;;;;;;;;1.00;1.00;;;;;19.42;43.04;100956.88;6367914;22;45297;-79
2024/01/22 01:13:17;;;;;;;;;3.67;2.00;;;;;19.47;43.10;100944.03;6368222;22;45384;-77
2024/01/22 01:15:42;;;;;;;;;3.00;1.00;;;;;19.40;43.15;100945.66;6367828;22;45375;-77
2024/01/22 01:18:08;;;;;;;;;2.00;2.00;;;;;19.44;42.93;100949.63;6368098;22;45383;-78
2024/01/22 01:20:34;;;;;;;;;2.00;2.00;;;;;19.56;43.10;100957.25;6368268;22;45362;-77
2024/01/22 01:23:00;;;;;;;;;1.00;1.00;;;;;19.55;43.21;100953.78;6367722;22;46303;-76
2024/01/22 01:25:25;;;;;;;;;2.00;2.00;;;;;19.54;43.10;100946.88;6367237;22;45241;-77
2024/01/22 01:27:50;;;;;;;;;4.67;2.00;;;;;19.35;43.13;100925.03;6368712;22;45209;-78
2024/01/22 01:30:16;;;;;;;;;1.00;1.00;;;;;19.46;43.11;100949.47;6367399;22;49165;-78
2024/01/22 01:32:41;;;;;;;;;1.00;1.00;;;;;19.41;43.10;100928.84;6367631;22;46847;-79
2024/01/22 01:35:07;;;;;;;;;1.00;1.00;;;;;19.54;43.14;100951.31;6367892;22;45232;-78
2024/01/22 01:37:32;;;;;;;;;2.67;1.67;;;;;19.37;43.18;100915.13;6368527;22;45326;-78
2024/01/22 01:39:58;;;;;;;;;4.00;2.33;;;;;19.50;42.96;100940.22;6368026;22;45333;-78
2024/01/22 01:42:23;;;;;;;;;1.00;1.00;;;;;19.46;43.03;100926.56;6368079;22;45215;-78
2024/01/22 01:44:50;;;;;;;;;1.67;1.67;;;;;19.41;42.94;100926.22;6367039;22;63436;-78
2024/01/22 01:47:16;;;;;;;;;2.67;2.00;;;;;19.40;43.02;100922.75;6368056;22;45228;-79
2024/01/22 01:49:43;;;;;;;;;0.67;0.67;;;;;19.48;42.94;100918.47;6367557;22;45311;-79
2024/01/22 01:52:10;;;;;;;;;1.00;1.00;;;;;19.50;42.97;100940.22;6368093;22;45331;-78
2024/01/22 01:54:37;;;;;;;;;0.00;0.00;;;;;19.52;42.91;100930.34;6367102;22;45297;-78
2024/01/22 01:57:07;;;;;;;;;2.00;2.00;;;;;19.36;43.27;100907.41;6368019;22;45207;-78
2024/01/22 01:59:35;;;;;;;;;1.67;1.67;;;;;19.43;42.74;100911.03;6367876;22;45434;-78
2024/01/22 02:02:00;;;;;;;;;2.00;2.00;;;;;19.53;42.91;100933.81;6367529;22;46253;-78
2024/01/22 02:04:25;;;;;;;;;1.67;1.00;;;;;19.37;42.86;100885.28;6367128;22;62713;-78
2024/01/22 02:06:51;;;;;;;;;3.00;3.00;;;;;19.51;43.01;100926.06;6367705;22;45261;-78
2024/01/22 02:09:16;;;;;;;;;1.00;1.00;;;;;19.17;43.01;100864.44;6366976;22;45136;-77
2024/01/22 02:11:41;;;;;;;;;3.67;2.00;;;;;19.32;42.80;100884.94;6367190;22;56399;-76
2024/01/22 02:14:07;;;;;;;;;4.00;1.00;;;;;19.37;42.97;100898.47;6367423;22;45235;-77
2024/01/22 02:16:32;;;;;;;;;2.00;1.00;;;;;19.45;42.88;100887.13;6367745;22;45234;-77
2024/01/22 02:18:57;;;;;;;;;0.67;0.67;;;;;19.46;42.96;100905.44;6368011;22;45220;-77
2024/01/22 02:21:23;;;;;;;;;2.00;1.00;;;;;19.53;42.83;100920.63;6368093;22;46134;-77
2024/01/22 02:23:48;;;;;;;;;2.00;1.00;;;;;19.43;42.60;100892.56;6366982;22;45192;-77
2024/01/22 02:26:13;;;;;;;;;1.00;1.00;;;;;19.49;42.79;100902.47;6368340;22;45222;-78
2024/01/22 02:28:39;;;;;;;;;1.00;1.00;;;;;19.52;42.99;100914.50;6367780;22;45329;-77
2024/01/22 02:31:07;;;;;;;;;1.00;1.00;;;;;19.43;42.59;100883.81;6367718;22;46146;-77
2024/01/22 02:33:32;;;;;;;;;1.00;1.00;;;;;19.34;42.92;100877.69;6367306;22;45340;-76
2024/01/22 02:35:57;;;;;;;;;1.00;1.00;;;;;19.47;42.81;100896.53;6367998;22;45249;-77
2024/01/22 02:38:23;;;;;;;;;1.00;1.00;;;;;19.43;42.77;100889.94;6367586;22;45301;-77
2024/01/22 02:40:48;;;;;;;;;1.33;1.33;;;;;19.36;42.92;100876.53;6367356;22;46205;-77
2024/01/22 02:43:13;;;;;;;;;1.33;1.00;;;;;19.49;42.57;100886.63;6366749;22;45289;-78
2024/01/22 02:45:39;;;;;;;;;0.67;0.67;;;;;19.32;42.77;100880.50;6367761;22;45253;-78
2024/01/22 02:48:04;;;;;;;;;1.00;1.00;;;;;19.43;42.76;100894.38;6367517;22;45304;-77
2024/01/22 02:50:29;;;;;;;;;0.33;0.33;;;;;19.40;42.98;100877.03;6367219;22;45985;-77
2024/01/22 02:52:55;;;;;;;;;1.00;1.00;;;;;19.31;42.97;100863.00;6367113;22;47996;-78
2024/01/22 02:55:20;;;;;;;;;1.00;1.00;;;;;19.48;42.71;100882.34;6367393;22;51031;-76
2024/01/22 02:57:45;;;;;;;;;0.67;0.67;;;;;19.39;42.78;100883.31;6367591;22;45451;-77
2024/01/22 03:00:13;;;;;;;;;1.33;1.33;;;;;19.48;42.85;100877.06;6366894;22;47496;-77
2024/01/22 03:02:38;;;;;;;;;1.00;1.00;;;;;19.48;42.88;100892.91;6367663;22;45247;-78
2024/01/22 03:05:04;;;;;;;;;1.00;1.00;;;;;19.48;42.79;100887.63;6367647;22;45194;-76
2024/01/22 03:07:29;;;;;;;;;1.00;1.00;;;;;19.47;42.89;100875.41;6367432;22;45504;-77
2024/01/22 03:09:54;;;;;;;;;0.33;0.33;;;;;19.49;42.80;100873.44;6366929;22;47229;-76
2024/01/22 03:12:20;;;;;;;;;1.00;1.00;;;;;19.48;43.00;100865.69;6366881;22;45267;-76
2024/01/22 03:14:45;;;;;;;;;1.00;1.00;;;;;19.49;42.75;100883.97;6367567;22;45247;-77
2024/01/22 03:17:11;;;;;;;;;1.67;0.67;;;;;19.46;42.73;100881.69;6367487;22;45205;-78
2024/01/22 03:19:36;;;;;;;;;1.00;1.00;;;;;19.50;42.81;100895.38;6366978;22;46142;-77
2024/01/22 03:22:02;;;;;;;;;2.00;2.00;;;;;19.32;42.66;100862.03;6366591;22;45279;-77
2024/01/22 03:24:28;;;;;;;;;0.00;0.00;;;;;19.50;42.62;100890.94;6367820;22;45259;-77
2024/01/22 03:26:53;;;;;;;;;1.00;1.00;;;;;19.46;42.63;100878.22;6367878;22;45294;-77
2024/01/22 03:29:18;;;;;;;;;2.00;1.00;;;;;19.44;42.63;100851.19;6367030;22;46052;-77
2024/01/22 03:31:43;;;;;;;;;2.00;2.00;;;;;19.46;42.73;100871.13;6366898;22;53704;-77
2024/01/22 03:34:09;;;;;;;;;1.00;0.00;;;;;19.48;42.75;100892.91;6367872;22;45268;-77
2024/01/22 03:36:36;;;;;;;;;1.00;1.00;;;;;19.49;42.72;100889.25;6367044;22;45304;-77
2024/01/22 03:39:01;;;;;;;;;1.00;1.00;;;;;19.22;42.81;100832.31;6367227;22;46289;-77
2024/01/22 03:41:26;;;;;;;;;1.00;1.00;;;;;19.55;42.79;100868.50;6367295;22;45220;-77
2024/01/22 03:43:52;;;;;;;;;1.00;1.00;;;;;19.54;42.55;100848.38;6366968;22;48280;-79
2024/01/22 03:46:17;;;;;;;;;0.33;0.33;;;;;19.45;42.64;100855.44;6367438;22;45423;-77
2024/01/22 03:48:43;;;;;;;;;0.00;0.00;;;;;19.45;42.54;100845.72;6367052;22;45204;-78
2024/01/22 03:51:08;;;;;;;;;0.67;0.67;;;;;19.54;42.61;100872.97;6365801;22;56783;-77
2024/01/22 03:53:34;;;;;;;;;1.00;1.00;;;;;19.58;42.63;100873.44;6366984;22;45187;-77
2024/01/22 03:56:04;;;;;;;;;0.00;0.00;;;;;19.42;43.07;100856.59;6367284;22;45220;-77
2024/01/22 03:58:29;;;;;;;;;2.00;0.00;;;;;19.56;42.46;100878.06;6366788;22;47105;-78
2024/01/22 04:00:54;;;;;;;;;0.00;0.00;;;;;19.45;42.57;100853.63;6366865;22;45312;-78
2024/01/22 04:03:20;;;;;;;;;0.00;0.00;;;;;19.37;42.77;100840.44;6367203;22;45313;-78
2024/01/22 04:05:45;;;;;;;;;2.00;0.00;;;;;19.16;42.64;100815.28;6366910;22;45436;-78
2024/01/22 04:08:10;;;;;;;;;0.67;0.67;;;;;19.52;42.69;100859.09;6338761;22;46954;-77
2024/01/22 04:10:35;;;;;;;;;2.00;0.33;;;;;19.38;42.49;100850.00;6366435;22;45225;-77
2024/01/22 04:13:01;;;;;;;;;1.00;0.00;;;;;19.52;42.67;100880.19;6367109;22;45253;-78
2024/01/22 04:15:26;;;;;;;;;1.00;1.00;;;;;19.53;42.77;100886.31;6366945;22;45393;-78
2024/01/22 04:17:51;;;;;;;;;0.00;0.00;;;;;19.51;42.74;100892.59;6366911;22;45974;-78
2024/01/22 04:20:17;;;;;;;;;1.00;0.00;;;;;19.44;42.46;100867.00;6366605;22;45272;-77
2024/01/22 04:22:42;;;;;;;;;1.00;1.00;;;;;19.51;43.03;100874.13;6366782;22;45163;-77
2024/01/22 04:25:08;;;;;;;;;0.00;0.00;;;;;19.39;42.72;100870.09;6367137;22;45228;-78
2024/01/22 04:27:34;;;;;;;;;1.00;0.67;;;;;19.37;42.74;100867.66;6366508;22;46013;-77
2024/01/22 04:29:59;;;;;;;;;1.00;1.00;;;;;19.50;42.96;100898.84;6366925;22;45459;-76
2024/01/22 04:32:25;;;;;;;;;2.67;1.00;;;;;19.38;42.56;100882.50;6368745;22;45309;-78
2024/01/22 04:34:50;;;;;;;;;0.00;0.00;;;;;19.46;42.68;100892.25;6367856;22;45278;-77
2024/01/22 04:37:16;;;;;;;;;0.00;0.00;;;;;19.50;42.54;100888.28;6368058;22;46112;-78
2024/01/22 04:39:42;;;;;;;;;0.00;0.00;;;;;19.50;42.79;100887.44;6368134;22;45342;-78
2024/01/22 04:42:08;;;;;;;;;0.00;0.00;;;;;19.50;42.68;100898.00;6368875;22;45243;-78
2024/01/22 04:44:33;;;;;;;;;1.00;1.00;;;;;19.38;42.96;100874.59;6368222;22;45275;-78
2024/01/22 04:47:00;;;;;;;;;0.00;0.00;;;;;19.44;42.64;100869.66;6368382;22;45275;-78
2024/01/22 04:49:25;;;;;;;;;0.67;0.67;;;;;19.49;42.76;100886.63;6367243;22;45316;-77
2024/01/22 04:51:50;;;;;;;;;2.33;1.00;;;;;19.49;42.56;100873.44;6367930;22;45276;-78
2024/01/22 04:54:16;;;;;;;;;1.00;1.00;;;;;19.16;42.72;100824.03;6368452;22;45337;-78
2024/01/22 04:56:45;;;;;;;;;0.00;0.00;;;;;19.49;42.80;100856.78;6368217;22;46275;-78
2024/01/22 04:59:11;;;;;;;;;0.00;0.00;;;;;18.32;42.71;100670.09;6368394;22;45266;-77
2024/01/22 05:01:37;;;;;;;;;0.00;0.00;;;;;19.48;42.59;100861.25;6368175;22;45354;-78
2024/01/22 05:04:03;;;;;;;;;0.67;0.33;;;;;19.31;42.91;100822.63;6367956;22;45237;-78
2024/01/22 05:06:28;;;;;;;;;0.00;0.00;;;;;19.40;42.69;100838.31;6367991;22;46325;-77
2024/01/22 05:08:54;;;;;;;;;0.00;0.00;;;;;19.36;42.54;100834.31;6368143;22;45312;-77
2024/01/22 05:11:19;;;;;;;;;1.67;1.00;;;;;19.50;42.37;100856.63;6368227;22;45271;-77
2024/01/22 05:13:52;;;;;;;;;0.33;0.00;;;;;19.43;42.67;100842.44;6367804;22;45344;-78
2024/01/22 05:16:18;;;;;;;;;0.33;0.33;;;;;19.54;42.52;100861.56;6339452;22;47178;-78
2024/01/22 05:18:44;;;;;;;;;0.00;0.00;;;;;19.49;42.52;100849.69;6367855;22;45237;-77
2024/01/22 05:21:10;;;;;;;;;0.00;0.00;;;;;19.45;42.60;100835.16;6367962;22;45262;-78
2024/01/22 05:23:35;;;;;;;;;0.00;0.00;;;;;19.47;42.78;100848.19;6367901;22;45414;-77
2024/01/22 05:26:00;;;;;;;;;0.00;0.00;;;;;19.51;42.66;100847.72;6368344;22;45963;-78
2024/01/22 05:28:26;;;;;;;;;0.67;0.00;;;;;19.05;42.61;100761.03;6367874;22;54185;-77
2024/01/22 05:30:51;;;;;;;;;3.00;1.33;;;;;19.47;42.77;100833.19;6339929;22;45224;-77
2024/01/22 05:33:17;;;;;;;;;0.00;0.00;;;;;19.49;42.65;100827.75;6367795;22;45410;-77
2024/01/22 05:35:42;;;;;;;;;0.00;0.00;;;;;19.53;42.67;100847.56;6367994;22;45930;-77
2024/01/22 05:38:07;;;;;;;;;1.00;1.00;;;;;19.38;42.57;100824.44;6367779;22;48832;-78
2024/01/22 05:40:32;;;;;;;;;1.33;0.00;;;;;19.32;42.63;100818.97;6367644;22;45279;-77
2024/01/22 05:42:58;;;;;;;;;0.00;0.00;;;;;19.38;42.64;100828.91;6368116;22;45324;-77
2024/01/22 05:45:23;;;;;;;;;0.00;0.00;;;;;19.39;42.70;100839.28;6367344;22;53055;-77
2024/01/22 05:47:49;;;;;;;;;0.00;0.00;;;;;19.48;42.56;100855.97;6368071;22;45324;-78
2024/01/22 05:50:15;;;;;;;;;0.00;0.00;;;;;19.42;42.84;100837.28;6368497;22;45179;-78
2024/01/22 05:52:40;;;;;;;;;0.00;0.00;;;;;19.51;42.50;100836.34;6367718;22;45366;-77
2024/01/22 05:55:06;;;;;;;;;1.00;0.67;;;;;19.50;42.50;100845.22;6367397;22;47056;-76
2024/01/22 05:57:31;;;;;;;;;0.00;0.00;;;;;19.41;42.57;100820.66;6367543;22;45331;-78
2024/01/22 05:59:57;;;;;;;;;1.00;1.00;;;;;19.45;42.89;100840.44;6367706;22;45327;-78
2024/01/22 06:02:22;;;;;;;;;0.00;0.00;;;;;19.50;42.77;100846.06;6368019;22;46750;-78
2024/01/22 06:04:47;;;;;;;;;0.00;0.00;;;;;19.36;42.79;100826.41;6368192;22;47395;-77
2024/01/22 06:07:12;;;;;;;;;1.00;1.00;;;;;19.38;42.86;100840.28;6367989;22;45359;-78
2024/01/22 06:09:39;;;;;;;;;0.00;0.00;;;;;19.45;42.70;100842.25;6368354;22;45376;-77
2024/01/22 06:12:04;;;;;;;;;0.00;0.00;;;;;19.45;42.66;100852.81;6367486;22;45467;-77
2024/01/22 06:14:30;;;;;;;;;0.00;0.00;;;;;19.38;42.64;100850.00;6367188;22;45265;-77
2024/01/22 06:16:55;;;;;;;;;1.00;1.00;;;;;19.38;42.61;100850.00;6367757;22;45267;-77
2024/01/22 06:19:20;;;;;;;;;0.67;0.67;;;;;19.39;42.81;100856.91;6367839;22;45315;-77
2024/01/22 06:21:46;;;;;;;;;1.00;1.00;;;;;19.48;42.89;100895.53;6367761;22;45298;-76
2024/01/22 06:24:11;;;;;;;;;1.33;1.33;;;;;19.35;42.90;100858.25;6367729;22;48992;-79
2024/01/22 06:26:36;;;;;;;;;0.00;0.00;;;;;19.50;42.81;100882.19;6367681;22;45128;-78
2024/01/22 06:29:02;;;;;;;;;0.00;0.00;;;;;19.39;42.75;100870.09;6367465;22;45169;-85
2024/01/22 06:31:28;;;;;;;;;0.33;0.33;;;;;19.54;42.71;100875.59;6367854;22;45231;-81
2024/01/22 06:33:53;;;;;;;;;0.00;0.00;;;;;19.54;42.89;100887.97;6368401;22;45156;-80
2024/01/22 06:36:18;;;;;;;;;0.67;0.67;;;;;19.58;42.86;100905.94;6368701;22;45153;-82
2024/01/22 06:38:44;;;;;;;;;0.00;0.00;;;;;19.59;42.89;100904.16;6366812;22;45193;-80
2024/01/22 06:41:11;;;;;;;;;0.33;0.33;;;;;19.46;42.78;100886.97;6367923;22;45383;-81
2024/01/22 06:43:37;;;;;;;;;1.00;1.00;;;;;19.60;43.03;100903.13;6365666;22;47047;-80
2024/01/22 06:46:03;;;;;;;;;0.00;0.00;;;;;19.62;43.13;100917.03;6338042;22;45908;-79
2024/01/22 06:48:28;;;;;;;;;2.00;0.00;;;;;19.62;43.27;100911.75;6368003;22;45244;-79
2024/01/22 06:50:53;;;;;;;;;1.00;1.00;;;;;19.65;43.40;100892.13;6366104;22;60815;-84
2024/01/22 06:53:18;;;;;;;;;0.33;0.00;;;;;19.60;42.98;100889.94;6367612;22;55339;-85
2024/01/22 06:55:44;;;;;;;;;0.33;0.33;;;;;19.66;43.13;100910.41;6368021;22;45285;-82
2024/01/22 06:58:09;;;;;;;;;0.00;0.00;;;;;19.66;43.15;100914.88;6367426;22;45303;-81
2024/01/22 07:00:36;;;;;;;;;0.00;0.00;;;;;19.61;43.16;100924.09;6367608;22;45344;-82
2024/01/22 07:03:02;;;;;;;;;0.00;0.00;;;;;19.44;43.16;100891.56;6368540;22;46143;-85
2024/01/22 07:05:27;;;;;;;;;0.00;0.00;;;;;19.66;43.08;100941.25;6367814;22;45311;-84
2024/01/22 07:07:54;;;;;;;;;0.67;0.67;;;;;19.65;43.32;100951.00;6367860;22;45500;-85
2024/01/22 07:10:19;;;;;;;;;2.33;1.00;;;;;19.65;43.28;100953.63;6367512;22;45248;-80
2024/01/22 07:12:44;;;;;;;;;0.00;0.00;;;;;19.55;43.14;100935.31;6367307;22;45238;-83
2024/01/22 07:15:12;;;;;;;;;0.00;0.00;;;;;19.62;43.08;100946.84;6367819;22;45186;-78
2024/01/22 07:17:37;;;;;;;;;2.67;0.00;;;;;19.64;43.18;100945.88;6368073;22;45334;-82
2024/01/22 07:20:03;;;;;;;;;1.00;1.00;;;;;19.63;43.16;100968.81;6367385;22;45396;-78
2024/01/22 07:22:28;;;;;;;;;0.00;0.00;;;;;19.54;43.23;100946.03;6367116;22;45990;-77
2024/01/22 07:24:54;;;;;;;;;0.00;0.00;;;;;19.65;43.21;100958.91;6367492;22;45328;-77
2024/01/22 07:27:19;;;;;;;;;0.00;0.00;;;;;19.43;43.73;100944.50;6367153;22;47156;-78
2024/01/22 07:29:44;;;;;;;;;0.33;0.00;;;;;19.65;43.51;100964.19;6366093;22;45456;-82
2024/01/22 07:32:10;;;;;;;;;1.00;0.00;;;;;19.67;43.61;100977.25;6366737;22;46496;-82
2024/01/22 07:34:35;;;;;;;;;0.00;0.00;;;;;19.67;43.67;100974.59;6368532;22;45237;-82
2024/01/22 07:37:01;;;;;;;;;1.00;0.00;;;;;19.53;43.41;100970.75;6368046;22;45611;-83
2024/01/22 07:39:26;;;;;;;;;0.67;0.67;;;;;19.65;43.52;100985.31;6368063;22;45214;-82
2024/01/22 07:41:51;;;;;;;;;0.00;0.00;;;;;19.64;43.42;100999.50;6366776;22;46830;-82
2024/01/22 07:44:17;;;;;;;;;0.00;0.00;;;;;19.64;43.59;100985.47;6367769;22;45285;-82
2024/01/22 07:46:42;;;;;;;;;0.00;0.00;;;;;19.46;43.55;100967.94;6368275;22;45241;-83
2024/01/22 07:49:07;;;;;;;;;0.00;0.00;;;;;19.62;43.47;100994.38;6368417;22;45360;-83
2024/01/22 07:51:33;;;;;;;;;0.00;0.00;;;;;19.63;43.75;101000.47;6368042;22;46363;-83
2024/01/22 07:53:59;;;;;;;;;0.00;0.00;;;;;19.47;43.85;100983.59;6367290;22;45323;-83
2024/01/22 07:56:24;;;;;;;;;0.00;0.00;;;;;19.61;43.52;101005.09;6367277;22;45648;-82
2024/01/22 07:58:49;;;;;;;;;0.00;0.00;;;;;19.48;43.55;101001.09;6368379;22;45327;-83
2024/01/22 08:01:15;;;;;;;;;2.00;0.00;;;;;19.66;43.58;101025.72;6369395;22;46319;-83
2024/01/22 08:03:40;;;;;;;;;1.00;0.00;;;;;19.59;43.59;101033.47;6369011;22;45339;-83
2024/01/22 08:06:06;;;;;;;;;0.67;0.00;;;;;19.64;43.74;101051.47;6369176;22;45359;-82
2024/01/22 08:08:31;;;;;;;;;0.00;0.00;;;;;19.54;43.39;101047.16;6368942;22;45964;-83
2024/01/22 08:10:57;;;;;;;;;0.00;0.00;;;;;19.62;43.81;101076.19;6369650;22;45811;-83
2024/01/22 08:13:23;;;;;;;;;2.33;0.00;;;;;19.29;43.65;101018.81;6369201;22;45288;-81
2024/01/22 08:15:49;;;;;;;;;0.33;0.33;;;;;19.50;43.42;101085.38;6369159;22;45253;-82
2024/01/22 08:18:14;;;;;;;;;0.00;0.00;;;;;19.57;43.70;101085.59;6369434;22;45229;-83
2024/01/22 08:20:40;;;;;;;;;0.00;0.00;;;;;19.52;43.48;101091.31;6370255;22;45259;-82
2024/01/22 08:23:06;;;;;;;;;0.00;0.00;;;;;19.61;43.60;101113.31;6369095;22;45345;-82
2024/01/22 08:25:32;;;;;;;;;0.00;0.00;;;;;19.40;43.74;101086.34;6369689;22;45245;-82
2024/01/22 08:28:00;;;;;;;;;0.00;0.00;;;;;19.63;43.80;101132.47;6369432;22;45196;-83
2024/01/22 08:30:27;;;;;;;;;0.00;0.00;;;;;19.63;43.60;101116.63;6369326;22;45485;-82
2024/01/22 08:32:53;;;;;;;;;0.00;0.00;;;;;19.63;43.82;101132.47;6369289;22;45322;-82
2024/01/22 08:35:21;;;;;;;;;0.00;0.00;;;;;19.63;43.16;101140.38;6368727;22;45339;-83
2024/01/22 08:37:50;;;;;;;;;0.00;0.00;;;;;19.15;43.59;101077.41;6369275;22;45224;-82
2024/01/22 08:40:21;;;;;;;;;0.00;0.00;;;;;19.64;43.55;101152.59;6368652;22;47314;-82
2024/01/22 08:42:49;;;;;;;;;0.00;0.00;;;;;19.65;43.47;101164.81;6369701;22;45390;-82
2024/01/22 08:45:15;;;;;;;;;0.00;0.00;;;;;19.66;43.22;101165.63;6368602;22;45098;-82
2024/01/22 08:47:43;;;;;;;;;0.00;0.00;;;;;19.65;43.62;101171.91;6368479;22;45318;-83
2024/01/22 08:50:11;;;;;;;;;0.00;0.00;;;;;19.31;43.50;101129.47;6370218;22;46409;-82
2024/01/22 08:52:37;;;;;;;;;0.67;0.00;;;;;19.64;43.55;101188.72;6369768;22;45256;-82
2024/01/22 08:55:05;;;;;;;;;2.00;0.00;;;;;19.62;43.51;101200.25;6369714;22;45189;-83
2024/01/22 08:57:31;;;;;;;;;0.00;0.00;;;;;19.62;43.51;101202.91;6369848;22;45221;-82
2024/01/22 08:59:57;;;;;;;;;0.33;0.00;;;;;19.29;43.56;101149.91;6370063;22;47419;-82
2024/01/22 09:02:22;;;;;;;;;1.00;1.00;;;;;19.61;43.33;101209.19;6370542;22;45323;-82
2024/01/22 09:04:48;;;;;;;;;2.00;0.00;;;;;19.61;43.66;101201.25;6369645;22;45229;-82
2024/01/22 09:07:14;;;;;;;;;0.00;0.00;;;;;19.53;43.36;101190.66;6368725;22;45307;-82
2024/01/22 09:09:40;;;;;;;;;1.00;0.00;;;;;19.62;43.42;101215.28;6369682;22;46104;-82
2024/01/22 09:12:06;;;;;;;;;0.00;0.00;;;;;19.64;43.54;101223.88;6369558;22;45247;-82
2024/01/22 09:14:31;;;;;;;;;1.33;0.00;;;;;19.59;43.53;101211.16;6368561;22;45320;-82
2024/01/22 09:16:57;;;;;;;;;1.00;1.00;;;;;19.56;43.31;101203.53;6369907;22;45370;-81
2024/01/22 09:19:22;;;;;;;;;0.67;0.67;;;;;19.66;43.42;101227.19;6369282;22;45273;-81
2024/01/22 09:21:47;;;;;;;;;0.00;0.00;;;;;19.65;43.47;101236.06;6368495;22;45455;-81
2024/01/22 09:24:13;;;;;;;;;0.00;0.00;;;;;19.66;43.47;101231.63;6367900;22;47922;-81
2024/01/22 09:26:38;;;;;;;;;1.00;0.00;;;;;19.59;43.31;101229.63;6370005;22;45407;-82
2024/01/22 09:29:03;;;;;;;;;0.67;0.67;;;;;19.65;43.62;101237.91;6368887;22;49588;-82
2024/01/22 09:31:29;;;;;;;;;0.00;0.00;;;;;19.65;43.41;101235.28;6369322;22;45260;-82
2024/01/22 09:33:54;;;;;;;;;0.00;0.00;;;;;19.43;43.41;101211.03;6369320;22;45269;-82
2024/01/22 09:36:21;;;;;;;;;1.00;0.00;;;;;19.57;43.45;101236.84;6369899;22;45240;-83
2024/01/22 09:38:46;;;;;;;;;0.00;0.00;;;;;19.62;43.33;101244.34;6368851;22;47011;-82
2024/01/22 09:41:13;;;;;;;;;1.33;0.00;;;;;19.61;43.40;101248.78;6369023;22;45288;-82
2024/01/22 09:43:40;;;;;;;;;0.00;0.00;;;;;19.56;43.24;101247.56;6368987;22;45256;-82
2024/01/22 09:46:05;;;;;;;;;0.33;0.33;;;;;19.57;43.35;101251.88;6369933;22;45482;-82
2024/01/22 09:48:32;;;;;;;;;0.67;0.00;;;;;19.62;43.48;101255.69;6369795;22;46236;-83
2024/01/22 09:51:01;;;;;;;;;0.00;0.00;;;;;19.44;43.05;101225.88;6368657;22;45232;-82
2024/01/22 09:53:27;;;;;;;;;0.67;0.00;;;;;19.57;43.52;101249.25;6368803;22;45271;-82
2024/01/22 09:55:53;;;;;;;;;1.00;1.00;;;;;19.58;43.39;101261.44;6369660;22;45291;-82
2024/01/22 09:58:24;;;;;;;;;2.00;0.33;;;;;19.46;43.51;101251.13;6368825;22;46344;-82
2024/01/22 10:00:52;;;;;;;;;1.00;0.00;;;;;19.62;43.65;101271.53;6367878;22;45271;-82
2024/01/22 10:03:17;;;;;;;;;0.00;0.00;;;;;19.16;43.27;101176.66;6370531;22;45333;-83
2024/01/22 10:05:43;;;;;;;;;0.00;0.00;;;;;19.16;43.42;101206.50;6370409;22;45319;-82
2024/01/22 10:08:08;;;;;;;;;0.00;0.00;;;;;19.46;43.30;101253.78;6367793;22;45923;-82
2024/01/22 10:10:33;;;;;;;;;0.33;0.00;;;;;19.64;43.15;101287.22;6367557;22;60768;-82
2024/01/22 10:13:03;;;;;;;;;2.00;1.00;;;;;19.66;43.25;101287.06;6368721;22;45268;-82
2024/01/22 10:15:32;;;;;;;;;1.00;0.00;;;;;19.55;43.27;101274.94;6368230;22;45463;-82
2024/01/22 10:18:14;;;;;;;;;0.00;0.00;;;;;19.66;43.43;101302.91;6368911;22;45841;-82
2024/01/22 10:20:42;;;;;;;;;0.00;0.00;;;;;19.53;43.46;101284.81;6339269;22;45275;-80
2024/01/22 10:23:08;;;;;;;;;1.00;1.00;;;;;19.49;43.43;101282.47;6368122;22;45245;-82
2024/01/22 10:25:34;;;;;;;;;0.00;0.00;;;;;19.67;43.21;101309.84;6369399;22;45318;-83
2024/01/22 10:28:19;;;;;;;;;0.00;0.00;;;;;19.42;43.18;101278.78;6367526;22;46379;-83
2024/01/22 10:30:45;;;;;;;;;2.00;0.00;;;;;19.68;43.19;101312.34;6368243;22;45302;-83
2024/01/22 10:33:15;;;;;;;;;1.00;1.00;;;;;19.69;43.22;101316.66;6367954;22;45279;-82
2024/01/22 10:35:42;;;;;;;;;1.00;0.00;;;;;19.70;43.36;101301.59;6368728;22;45414;-82
2024/01/22 10:38:12;;;;;;;;;0.00;0.00;;;;;19.67;43.28;101296.66;6368238;22;45364;-83
2024/01/22 10:40:38;;;;;;;;;0.33;0.33;;;;;19.60;42.93;101291.97;6368168;22;45248;-83
2024/01/22 10:43:18;;;;;;;;;2.00;0.33;;;;;19.56;43.24;101297.72;6368142;22;45183;-82
2024/01/22 10:45:47;;;;;;;;;1.00;1.00;;;;;19.45;43.32;101275.88;6368543;22;45294;-83
2024/01/22 10:48:17;;;;;;;;;0.00;0.00;;;;;19.70;43.00;101318.28;6368268;22;45399;-83
2024/01/22 10:50:42;;;;;;;;;1.67;0.00;;;;;19.58;43.15;101295.75;6367920;22;45304;-82
2024/01/22 10:53:09;;;;;;;;;1.00;1.00;;;;;19.70;43.07;101307.72;6367978;22;45248;-82
2024/01/22 10:55:34;;;;;;;;;0.00;0.00;;;;;19.70;43.07;101317.44;6368041;22;45245;-83
2024/01/22 10:58:08;;;;;;;;;1.00;0.00;;;;;19.66;42.58;101337.22;6367933;22;45275;-83
2024/01/22 11:00:40;;;;;;;;;0.00;0.00;;;;;19.65;42.94;101312.63;6368578;22;45330;-82
2024/01/22 11:03:09;;;;;;;;;2.33;0.33;;;;;19.31;43.65;101264.03;6369382;22;45355;-83
2024/01/22 11:05:41;;;;;;;;;0.00;0.00;;;;;19.50;43.11;101297.34;6368937;22;45380;-84
2024/01/22 11:08:11;;;;;;;;;0.00;0.00;;;;;19.70;43.27;101346.50;6368454;22;47594;-83
2024/01/22 11:10:39;;;;;;;;;1.00;0.00;;;;;19.70;43.12;101351.78;6369803;22;45282;-83
2024/01/22 11:13:06;;;;;;;;;2.00;0.00;;;;;19.35;43.07;101297.06;6369956;22;45208;-82
2024/01/22 11:15:31;;;;;;;;;0.00;0.00;;;;;19.32;42.89;101297.34;6369500;22;45220;-83
2024/01/22 11:17:56;;;;;;;;;0.67;0.00;;;;;19.36;43.05;101306.63;6369519;22;46183;-82